Time;durP1;ratioP1;P1;durP2;ratioP2;P2;SDS_P1;SDS_P2;PMS_P1;PMS_P2;Temp;Humidity;BMP_temperature;BMP_pressure;BME280_temperature;BME280_humidity;BME280_pressure;Samples;Min_cycle;Max_cycle;Signal;HPM_P1;HPM_P2
2024/02/06 00:01:48;;;;;;;20.23;6.88;;;;;;;7.69;100.00;101307.75;4982904;28;20027;-70
2024/02/06 00:04:14;;;;;;;18.45;5.68;;;;;;;7.80;100.00;101298.19;4981822;28;20118;-70
2024/02/06 00:06:40;;;;;;;11.23;5.45;;;;;;;7.75;100.00;101307.25;4984169;28;20038;-70
2024/02/06 00:09:05;;;;;;;12.25;5.20;;;;;;;7.87;100.00;101306.22;4981435;28;20082;-70
2024/02/06 00:11:31;;;;;;;14.40;5.85;;;;;;;7.82;100.00;101299.81;4968287;28;20069;-70
2024/02/06 00:13:56;;;;;;;15.10;6.22;;;;;;;7.81;100.00;101299.00;4966985;28;20035;-70
2024/02/06 00:16:22;;;;;;;18.00;6.32;;;;;;;7.87;100.00;101287.34;4965984;28;20509;-70
2024/02/06 00:18:47;;;;;;;18.80;7.65;;;;;;;7.92;100.00;101309.25;4982426;28;20049;-70
2024/02/06 00:21:13;;;;;;;19.20;8.02;;;;;;;7.89;100.00;101293.19;4999567;28;20045;-70
2024/02/06 00:23:39;;;;;;;18.42;7.05;;;;;;;7.89;100.00;101281.13;4968318;28;20039;-70
2024/02/06 00:26:04;;;;;;;16.15;5.88;;;;;;;7.86;100.00;101276.19;4981747;28;20035;-71
2024/02/06 00:28:29;;;;;;;14.93;4.60;;;;;;;7.84;100.00;101280.69;4965803;28;20461;-70
2024/02/06 00:30:55;;;;;;;11.32;5.07;;;;;;;7.93;100.00;101279.91;4967092;28;20042;-70
2024/02/06 00:33:21;;;;;;;20.75;5.03;;;;;;;7.97;100.00;101273.53;4967619;28;20034;-70
2024/02/06 00:35:46;;;;;;;19.95;6.05;;;;;;;7.99;100.00;101269.06;4996712;28;20031;-71
2024/02/06 00:38:12;;;;;;;16.52;5.00;;;;;;;7.96;100.00;101263.34;4983764;28;20112;-70
2024/02/06 00:40:38;;;;;;;18.98;6.10;;;;;;;7.94;100.00;101263.47;4987939;28;20042;-70
2024/02/06 00:43:03;;;;;;;11.68;4.35;;;;;;;7.99;100.00;101256.16;4983599;28;20037;-70
2024/02/06 00:45:29;;;;;;;20.45;5.38;;;;;;;8.06;100.00;101240.97;4983008;28;20390;-70
2024/02/06 00:47:54;;;;;;;11.13;5.50;;;;;;;8.04;100.00;101242.84;4984519;28;20057;-70
2024/02/06 00:50:20;;;;;;;12.05;6.15;;;;;;;7.94;100.00;101237.63;4983075;28;20041;-70
2024/02/06 00:52:46;;;;;;;13.48;4.75;;;;;;;8.03;100.00;101233.47;4999114;28;20511;-71
2024/02/06 00:55:12;;;;;;;10.77;4.32;;;;;;;8.05;100.00;101234.16;4999391;28;20524;-70
2024/02/06 00:57:38;;;;;;;9.80;4.50;;;;;;;8.16;100.00;101238.44;4982700;28;20338;-70
2024/02/06 01:00:04;;;;;;;14.88;4.63;;;;;;;8.16;100.00;101235.84;4980472;28;20042;-70
2024/02/06 01:02:30;;;;;;;12.23;4.57;;;;;;;8.18;100.00;101216.69;4983742;28;20042;-70
2024/02/06 01:04:55;;;;;;;12.20;4.53;;;;;;;8.15;100.00;101229.03;4984762;28;20038;-70
2024/02/06 01:07:21;;;;;;;15.07;4.22;;;;;;;8.23;100.00;101208.56;4997890;28;20042;-70
2024/02/06 01:09:47;;;;;;;11.07;4.68;;;;;;;8.23;100.00;101216.31;4981632;28;20066;-70
2024/02/06 01:12:12;;;;;;;11.07;3.88;;;;;;;8.18;100.00;101226.22;4998400;28;20819;-70
2024/02/06 01:14:38;;;;;;;13.38;4.40;;;;;;;8.13;100.00;101229.16;4997751;28;20041;-70
2024/02/06 01:17:06;;;;;;;11.88;4.53;;;;;;;8.23;100.00;101210.31;5000921;28;21069;-70
2024/02/06 01:19:32;;;;;;;10.75;4.05;;;;;;;8.23;100.00;101229.22;4984910;28;20042;-70
2024/02/06 01:21:57;;;;;;;16.90;4.65;;;;;;;8.29;100.00;101218.38;4985423;28;20127;-70
2024/02/06 01:24:23;;;;;;;11.32;3.70;;;;;;;8.26;100.00;101210.06;5000891;28;20408;-70
2024/02/06 01:26:48;;;;;;;9.68;4.60;;;;;;;8.30;100.00;101201.09;4999587;28;20026;-70
2024/02/06 01:29:14;;;;;;;13.80;4.45;;;;;;;8.22;100.00;101204.31;4983715;28;20436;-70
2024/02/06 01:31:40;;;;;;;8.80;4.07;;;;;;;8.24;100.00;101210.19;4984200;28;20489;-70
2024/02/06 01:34:06;;;;;;;15.60;5.25;;;;;;;8.33;100.00;101198.25;4979708;28;20058;-70
2024/02/06 01:36:34;;;;;;;24.48;4.50;;;;;;;8.24;100.00;101193.88;4985690;28;20058;-71
2024/02/06 01:38:59;;;;;;;12.25;4.47;;;;;;;8.22;100.00;101188.81;4963677;28;20030;-70
2024/02/06 01:41:25;;;;;;;16.48;5.20;;;;;;;8.21;100.00;101192.34;4987931;28;20029;-71
2024/02/06 01:43:50;;;;;;;12.75;4.95;;;;;;;8.13;100.00;101198.16;4984902;28;20561;-70
2024/02/06 01:46:16;;;;;;;11.40;4.75;;;;;;;8.21;100.00;101189.75;4985822;28;20026;-71
2024/02/06 01:48:41;;;;;;;14.93;4.68;;;;;;;8.24;100.00;101189.50;4985716;28;20485;-70
2024/02/06 01:51:08;;;;;;;17.23;4.75;;;;;;;8.33;100.00;101186.13;4983784;28;20054;-70
2024/02/06 01:53:34;;;;;;;11.35;5.18;;;;;;;8.26;100.00;101186.81;4999580;28;20464;-70
2024/02/06 01:56:00;;;;;;;13.63;4.50;;;;;;;8.32;100.00;101181.09;4983962;28;20112;-70
2024/02/06 01:58:27;;;;;;;13.20;4.75;;;;;;;8.24;100.00;101184.34;4997681;28;20031;-71
2024/02/06 02:00:53;;;;;;;12.85;4.43;;;;;;;8.28;100.00;101175.38;4982109;28;20042;-71
2024/02/06 02:03:20;;;;;;;13.25;4.47;;;;;;;8.26;100.00;101179.84;4985371;28;20034;-70
2024/02/06 02:05:45;;;;;;;15.40;4.80;;;;;;;8.28;100.00;101166.81;4982188;28;20038;-70
2024/02/06 02:08:11;;;;;;;13.40;4.70;;;;;;;8.32;100.00;101174.16;4980847;28;20929;-70
2024/02/06 02:10:36;;;;;;;22.13;4.50;;;;;;;8.35;100.00;101186.00;4979575;28;20073;-70
2024/02/06 02:13:02;;;;;;;14.30;4.50;;;;;;;8.29;100.00;101176.22;4983226;28;20420;-70
2024/02/06 02:15:28;;;;;;;15.00;3.97;;;;;;;8.31;100.00;101169.16;4998130;28;20046;-71
2024/02/06 02:17:54;;;;;;;12.35;4.32;;;;;;;8.18;100.00;101170.19;4984589;28;20026;-70
2024/02/06 02:20:19;;;;;;;15.95;4.30;;;;;;;8.27;100.00;101170.34;4985645;28;20613;-70
2024/02/06 02:22:45;;;;;;;14.13;4.25;;;;;;;8.27;100.00;101160.00;4982210;28;20041;-70
2024/02/06 02:25:11;;;;;;;18.40;4.40;;;;;;;8.30;100.00;101162.34;4997825;28;20045;-70
2024/02/06 02:27:36;;;;;;;16.50;4.45;;;;;;;8.29;100.00;101156.34;4998358;28;20400;-70
2024/02/06 02:30:03;;;;;;;15.98;4.28;;;;;;;8.33;100.00;101146.56;4983495;28;20057;-70
2024/02/06 02:32:29;;;;;;;18.38;4.70;;;;;;;8.32;100.00;101145.72;4983785;28;20708;-70
2024/02/06 02:34:55;;;;;;;16.00;5.00;;;;;;;8.30;100.00;101142.47;4998265;28;20726;-70
2024/02/06 02:37:20;;;;;;;11.13;3.95;;;;;;;8.27;100.00;101150.50;4983778;28;20030;-70
2024/02/06 02:39:47;;;;;;;14.35;4.07;;;;;;;8.34;100.00;101140.44;4980314;28;20554;-70
2024/02/06 02:42:12;;;;;;;12.23;3.88;;;;;;;8.39;100.00;101148.63;4984467;28;20037;-70
2024/02/06 02:44:38;;;;;;;20.20;4.65;;;;;;;8.34;100.00;101136.09;4997446;28;20042;-71
2024/02/06 02:47:03;;;;;;;14.77;3.95;;;;;;;8.32;100.00;101140.56;4984750;28;20029;-70
2024/02/06 02:49:29;;;;;;;21.45;3.92;;;;;;;8.33;100.00;101139.63;4998048;28;20543;-70
2024/02/06 02:51:54;;;;;;;14.77;3.47;;;;;;;8.39;100.00;101123.59;4999496;28;20392;-72
2024/02/06 02:54:22;;;;;;;10.75;3.65;;;;;;;8.30;100.00;101129.56;4980576;28;20038;-70
2024/02/06 02:56:47;;;;;;;9.23;3.65;;;;;;;8.46;100.00;101112.78;5000801;28;20126;-70
2024/02/06 02:59:13;;;;;;;11.50;3.85;;;;;;;8.47;100.00;101124.72;4982630;28;20042;-70
2024/02/06 03:01:38;;;;;;;12.88;3.80;;;;;;;8.43;100.00;101129.34;4986082;28;20081;-70
2024/02/06 03:04:03;;;;;;;18.15;4.88;;;;;;;8.41;100.00;101133.78;4981528;28;20034;-70
2024/02/06 03:06:29;;;;;;;17.02;4.13;;;;;;;8.45;100.00;101126.63;4998845;28;20081;-70
2024/02/06 03:08:54;;;;;;;16.30;3.40;;;;;;;8.52;100.00;101117.38;4982069;28;20030;-70
2024/02/06 03:11:20;;;;;;;12.68;4.45;;;;;;;8.54;100.00;101118.06;4996964;28;20540;-70
2024/02/06 03:13:46;;;;;;;10.40;3.08;;;;;;;8.56;100.00;101111.81;4999680;28;20042;-71
2024/02/06 03:16:12;;;;;;;12.88;3.60;;;;;;;8.51;100.00;101115.75;4983571;28;20037;-70
2024/02/06 03:18:38;;;;;;;13.68;3.33;;;;;;;8.48;100.00;101106.50;4984400;28;20409;-70
2024/02/06 03:21:04;;;;;;;18.48;3.90;;;;;;;8.48;100.00;101108.28;4961786;28;20271;-70
2024/02/06 03:23:30;;;;;;;11.80;4.32;;;;;;;8.44;100.00;101096.56;4978881;28;20530;-70
2024/02/06 03:25:55;;;;;;;16.20;3.83;;;;;;;8.49;100.00;101099.56;4963142;28;20046;-70
2024/02/06 03:28:21;;;;;;;12.13;4.65;;;;;;;8.50;100.00;101093.44;4964106;28;20509;-71
2024/02/06 03:30:46;;;;;;;14.85;3.83;;;;;;;8.46;100.00;101087.72;4975617;28;20051;-70
2024/02/06 03:33:12;;;;;;;18.45;3.95;;;;;;;8.46;100.00;101076.59;4983906;28;20077;-71
2024/02/06 03:35:38;;;;;;;11.55;3.47;;;;;;;8.49;100.00;101087.44;4967842;28;20035;-70
2024/02/06 03:38:04;;;;;;;10.65;3.53;;;;;;;8.44;100.00;101079.28;4965911;28;20085;-71
2024/02/06 03:40:30;;;;;;;10.63;3.80;;;;;;;8.48;100.00;101078.06;4966541;28;20038;-70
2024/02/06 03:42:56;;;;;;;11.05;3.33;;;;;;;8.52;100.00;101083.78;4983889;28;20069;-71
2024/02/06 03:45:21;;;;;;;10.32;3.28;;;;;;;8.49;100.00;101073.72;4981655;28;20047;-70
2024/02/06 03:47:47;;;;;;;8.43;3.03;;;;;;;8.53;100.00;101072.47;4966153;28;20081;-70
2024/02/06 03:50:12;;;;;;;12.60;4.15;;;;;;;8.49;100.00;101064.19;4982335;28;20097;-70
2024/02/06 03:52:38;;;;;;;13.93;4.20;;;;;;;8.44;100.00;101070.72;4968967;28;20089;-70
2024/02/06 03:55:04;;;;;;;12.27;3.60;;;;;;;8.43;100.00;101069.91;4980880;28;20043;-70
2024/02/06 03:57:29;;;;;;;16.17;4.00;;;;;;;8.45;100.00;101056.84;4953847;28;20035;-70
2024/02/06 03:59:54;;;;;;;15.77;3.90;;;;;;;8.51;100.00;101053.72;4966651;28;20489;-70
2024/02/06 04:02:21;;;;;;;12.90;4.03;;;;;;;8.54;100.00;101053.44;4967591;28;20069;-70
2024/02/06 04:04:47;;;;;;;13.90;4.05;;;;;;;8.56;100.00;101056.72;4981110;28;20508;-70
2024/02/06 04:07:13;;;;;;;17.05;3.83;;;;;;;8.49;100.00;101046.09;4967417;28;20085;-70
2024/02/06 04:09:39;;;;;;;17.90;3.83;;;;;;;8.46;100.00;101053.31;4962005;28;20039;-70
2024/02/06 04:12:05;;;;;;;12.85;3.90;;;;;;;8.55;100.00;101049.91;4982010;28;20477;-70
2024/02/06 04:14:31;;;;;;;16.00;4.00;;;;;;;8.58;100.00;101031.53;4980860;28;21236;-70
2024/02/06 04:16:56;;;;;;;15.95;4.28;;;;;;;8.55;100.00;101039.56;4965579;28;20046;-70
2024/02/06 04:21:47;;;;;;;19.88;3.80;;;;;;;8.50;100.00;101037.41;5010089;28;20066;-78
2024/02/06 04:24:13;;;;;;;14.98;3.70;;;;;;;8.54;100.00;101035.34;4999945;28;20057;-78
2024/02/06 04:26:39;;;;;;;13.23;4.10;;;;;;;8.51;100.00;101033.03;5006991;28;20030;-78
2024/02/06 04:29:05;;;;;;;12.98;4.28;;;;;;;8.55;100.00;101034.38;5006289;28;20220;-78
2024/02/06 04:31:31;;;;;;;18.15;4.85;;;;;;;8.51;100.00;101036.47;5014527;28;20112;-78
2024/02/06 04:33:57;;;;;;;12.02;4.05;;;;;;;8.57;100.00;101037.69;5025604;28;20546;-78
2024/02/06 04:36:25;;;;;;;18.70;4.40;;;;;;;8.52;100.00;101034.69;5025302;28;20033;-77
2024/02/06 04:38:50;;;;;;;14.60;4.13;;;;;;;8.62;100.00;101040.66;5011626;28;20029;-78
2024/02/06 04:41:16;;;;;;;16.00;5.00;;;;;;;8.53;100.00;101034.56;5027397;28;20052;-77
2024/02/06 04:43:42;;;;;;;15.30;3.80;;;;;;;8.54;100.00;101043.09;5008692;28;20040;-78
2024/02/06 04:46:08;;;;;;;14.63;4.53;;;;;;;8.51;100.00;101038.19;5025543;28;20164;-78
2024/02/06 04:48:33;;;;;;;11.25;3.65;;;;;;;8.56;100.00;101030.88;5026753;28;20032;-77
2024/02/06 04:50:59;;;;;;;15.48;4.55;;;;;;;8.64;100.00;101038.75;5024315;28;20411;-78
2024/02/06 04:53:25;;;;;;;15.88;3.70;;;;;;;8.62;100.00;101032.91;5022908;28;20022;-77
2024/02/06 04:55:50;;;;;;;10.98;4.10;;;;;;;8.58;100.00;101026.38;5024257;28;20033;-79
2024/02/06 04:58:16;;;;;;;12.77;4.45;;;;;;;8.56;100.00;101033.44;5031441;28;20515;-77
2024/02/06 05:00:41;;;;;;;23.70;4.47;;;;;;;8.60;100.00;101031.41;5018753;28;20049;-77
2024/02/06 05:03:07;;;;;;;18.88;4.88;;;;;;;8.53;100.00;101025.97;5024635;28;20033;-78
2024/02/06 05:05:33;;;;;;;14.80;4.60;;;;;;;8.66;100.00;101023.91;5024712;28;20044;-78
2024/02/06 05:07:59;;;;;;;13.98;4.30;;;;;;;8.62;100.00;101022.56;5009245;28;20025;-77
2024/02/06 05:10:24;;;;;;;14.32;4.85;;;;;;;8.53;100.00;101025.97;5022749;28;20484;-77
2024/02/06 05:12:49;;;;;;;16.98;4.65;;;;;;;8.57;100.00;101017.00;5006783;28;20443;-78
2024/02/06 05:15:15;;;;;;;13.88;4.75;;;;;;;8.53;100.00;101021.63;5026972;28;20036;-78
2024/02/06 05:17:41;;;;;;;13.00;4.28;;;;;;;8.60;100.00;101027.03;5025150;28;20052;-77
2024/02/06 05:20:09;;;;;;;13.55;4.63;;;;;;;8.59;100.00;101020.25;5009664;28;20491;-78
2024/02/06 05:22:37;;;;;;;13.02;4.65;;;;;;;8.57;100.00;101019.59;5024269;28;20040;-77
2024/02/06 05:25:03;;;;;;;18.45;5.00;;;;;;;8.58;100.00;101018.63;5024753;28;20037;-78
2024/02/06 05:27:29;;;;;;;12.55;5.65;;;;;;;8.56;100.00;101005.81;5025320;28;20064;-77
2024/02/06 05:29:54;;;;;;;13.90;4.75;;;;;;;8.49;100.00;101012.50;5023237;28;20033;-78
2024/02/06 05:32:20;;;;;;;14.23;5.38;;;;;;;8.53;100.00;100994.94;5007942;28;20127;-78
2024/02/06 05:34:45;;;;;;;14.52;5.03;;;;;;;8.48;100.00;101004.91;5025685;28;20033;-79
2024/02/06 05:37:10;;;;;;;12.65;4.63;;;;;;;8.49;100.00;101004.72;5012301;28;20034;-78
2024/02/06 05:39:36;;;;;;;18.15;4.68;;;;;;;8.49;100.00;101001.34;5032203;28;20033;-77
2024/02/06 05:42:03;;;;;;;19.17;6.00;;;;;;;8.43;100.00;100997.53;5027218;28;20291;-78
2024/02/06 05:44:28;;;;;;;23.17;5.53;;;;;;;8.46;100.00;100996.47;5023227;28;20569;-79
2024/02/06 05:46:54;;;;;;;14.55;4.70;;;;;;;8.51;100.00;101002.84;5024438;28;20029;-78
2024/02/06 05:49:19;;;;;;;13.50;4.82;;;;;;;8.52;100.00;100999.31;5007912;28;20069;-78
2024/02/06 05:51:45;;;;;;;10.90;4.63;;;;;;;8.52;100.00;100995.91;5024274;28;20033;-78
2024/02/06 05:54:10;;;;;;;20.35;5.38;;;;;;;8.55;100.00;100993.03;5021930;28;20647;-78
2024/02/06 05:56:38;;;;;;;13.40;4.78;;;;;;;8.54;100.00;101001.75;5020293;28;20036;-78
2024/02/06 05:59:04;;;;;;;12.57;4.45;;;;;;;8.55;100.00;100993.03;5026814;28;20037;-78
2024/02/06 06:01:29;;;;;;;18.60;5.47;;;;;;;8.56;100.00;100997.25;5008284;28;20072;-78
2024/02/06 06:03:55;;;;;;;18.27;5.03;;;;;;;8.60;100.00;100995.22;5020708;28;20392;-77
2024/02/06 06:06:20;;;;;;;13.27;4.63;;;;;;;8.62;100.00;100991.53;5024987;28;20396;-78
2024/02/06 06:08:47;;;;;;;17.83;5.00;;;;;;;8.63;100.00;100979.44;5022236;28;20080;-77
2024/02/06 06:11:12;;;;;;;17.98;4.60;;;;;;;8.62;100.00;100986.38;5017267;28;20049;-77
2024/02/06 06:13:38;;;;;;;12.63;4.88;;;;;;;8.56;100.00;100987.72;5008059;28;20041;-77
2024/02/06 06:16:04;;;;;;;16.08;4.72;;;;;;;8.58;100.00;100982.44;5022233;28;20033;-78
2024/02/06 06:18:29;;;;;;;12.43;5.30;;;;;;;8.66;100.00;100973.97;5025761;28;20041;-78
2024/02/06 06:20:55;;;;;;;23.15;5.47;;;;;;;8.61;100.00;100965.81;5022328;28;20036;-78
2024/02/06 06:23:20;;;;;;;10.02;4.88;;;;;;;8.61;100.00;100976.16;5021810;28;20041;-77
2024/02/06 06:25:46;;;;;;;12.60;4.90;;;;;;;8.61;100.00;100971.81;5010729;28;20079;-78
2024/02/06 06:28:11;;;;;;;19.05;4.45;;;;;;;8.62;100.00;100976.03;5008234;28;20044;-79
2024/02/06 06:30:37;;;;;;;24.88;5.75;;;;;;;8.55;100.00;100967.19;5019701;28;20040;-78
2024/02/06 06:33:03;;;;;;;11.02;4.25;;;;;;;8.56;100.00;100971.41;5021721;28;20048;-77
2024/02/06 06:35:29;;;;;;;14.82;5.18;;;;;;;8.52;100.00;100967.47;5008379;28;20033;-77
2024/02/06 06:37:54;;;;;;;13.13;4.90;;;;;;;8.62;100.00;100967.47;5023576;28;20503;-78
2024/02/06 06:40:20;;;;;;;16.30;4.72;;;;;;;8.64;100.00;100956.00;5008615;28;20037;-78
2024/02/06 06:42:45;;;;;;;16.33;4.70;;;;;;;8.60;100.00;100964.19;5020879;28;20049;-78
2024/02/06 06:45:11;;;;;;;14.73;5.25;;;;;;;8.61;100.00;100978.75;5021759;28;20084;-78
2024/02/06 06:47:37;;;;;;;16.00;4.93;;;;;;;8.66;100.00;100963.63;5026342;28;20022;-77
2024/02/06 06:50:02;;;;;;;16.65;5.57;;;;;;;8.59;100.00;100973.72;5022165;28;20034;-78
2024/02/06 06:52:29;;;;;;;19.45;4.88;;;;;;;8.58;100.00;100964.34;5007927;28;21553;-78
2024/02/06 06:54:55;;;;;;;16.70;4.75;;;;;;;8.62;100.00;100972.63;5022603;28;20061;-76
2024/02/06 06:57:21;;;;;;;15.50;5.72;;;;;;;8.63;100.00;100964.75;5023967;28;20037;-78
2024/02/06 06:59:46;;;;;;;16.33;4.63;;;;;;;8.67;100.00;100975.63;5017132;28;20078;-79
2024/02/06 07:02:12;;;;;;;25.65;5.68;;;;;;;8.66;100.00;100976.56;5019444;28;20029;-77
2024/02/06 07:04:38;;;;;;;16.25;4.85;;;;;;;8.67;100.00;100968.69;5022252;28;20461;-77
2024/02/06 07:07:03;;;;;;;25.55;5.38;;;;;;;8.71;100.00;100975.19;5006239;28;20060;-77
2024/02/06 07:09:29;;;;;;;25.77;5.85;;;;;;;8.82;100.00;100971.63;5007021;28;20064;-78
2024/02/06 07:11:55;;;;;;;13.45;4.70;;;;;;;8.74;100.00;100980.09;5022726;28;20646;-78
2024/02/06 07:14:21;;;;;;;24.13;5.10;;;;;;;8.79;100.00;100969.31;5016880;28;20496;-79
2024/02/06 07:16:46;;;;;;;17.65;4.78;;;;;;;8.84;100.00;100959.38;5022257;28;20030;-78
2024/02/06 07:19:13;;;;;;;16.73;4.72;;;;;;;8.76;100.00;100964.44;5020864;28;20124;-77
2024/02/06 07:21:38;;;;;;;15.55;5.60;;;;;;;8.68;100.00;100962.56;5023448;28;20048;-77
2024/02/06 07:24:04;;;;;;;16.33;4.85;;;;;;;8.73;100.00;100959.53;5018974;28;20060;-78
2024/02/06 07:26:31;;;;;;;21.63;5.10;;;;;;;8.75;100.00;100955.03;5023399;28;20044;-77
2024/02/06 07:28:57;;;;;;;16.73;5.45;;;;;;;8.75;100.00;100952.47;5022531;28;20059;-78
2024/02/06 07:31:23;;;;;;;16.88;4.93;;;;;;;8.70;100.00;100954.66;5021422;28;20053;-78
2024/02/06 07:33:49;;;;;;;18.15;5.32;;;;;;;8.73;100.00;100949.19;5022308;28;20041;-78
2024/02/06 07:36:15;;;;;;;31.13;9.10;;;;;;;8.77;100.00;100955.72;5021289;28;20506;-77
2024/02/06 07:38:46;;;;;;;17.42;5.90;;;;;;;8.89;100.00;100940.84;5016484;28;20048;-77
2024/02/06 07:41:12;;;;;;;14.70;4.60;;;;;;;8.80;100.00;100957.19;5003707;28;20038;-77
2024/02/06 07:43:37;;;;;;;25.27;5.63;;;;;;;8.83;100.00;100949.16;5024735;28;20021;-77
2024/02/06 07:46:04;;;;;;;16.17;5.13;;;;;;;8.87;100.00;100943.59;5017344;28;20504;-78
2024/02/06 07:48:30;;;;;;;19.10;5.72;;;;;;;8.90;100.00;100945.06;5019782;28;20037;-77
2024/02/06 07:50:55;;;;;;;14.35;4.80;;;;;;;8.92;100.00;100959.47;5008704;28;20029;-77
2024/02/06 07:53:20;;;;;;;17.52;5.20;;;;;;;9.01;100.00;100947.47;5019971;28;20029;-77
2024/02/06 07:55:46;;;;;;;21.83;5.53;;;;;;;8.98;100.00;100950.34;5022023;28;20037;-77
2024/02/06 07:58:12;;;;;;;22.65;6.50;;;;;;;8.99;100.00;100944.22;5018000;28;20045;-77
2024/02/06 08:00:37;;;;;;;16.98;5.15;;;;;;;8.95;100.00;100948.88;5005301;28;20037;-77
2024/02/06 08:03:03;;;;;;;19.50;4.88;;;;;;;9.06;100.00;100944.47;5017265;28;20034;-77
2024/02/06 08:05:29;;;;;;;14.82;5.20;;;;;;;9.02;100.00;100946.50;5002334;28;20045;-77
2024/02/06 08:07:55;;;;;;;15.60;5.20;;;;;;;9.06;100.00;100947.03;5007583;28;20064;-77
2024/02/06 08:10:20;;;;;;;20.33;6.00;;;;;;;9.06;100.00;100953.06;5022727;28;20057;-77
2024/02/06 08:12:46;;;;;;;16.52;4.88;;;;;;;9.05;100.00;100946.25;5022095;28;20057;-78
2024/02/06 08:15:12;;;;;;;18.95;4.93;;;;;;;9.13;100.00;100948.91;5014597;28;20041;-78
2024/02/06 08:17:42;;;;;;;15.88;4.68;;;;;;;8.96;100.00;100947.88;5002438;28;21370;-77
2024/02/06 08:20:09;;;;;;;19.90;4.70;;;;;;;9.00;100.00;100938.06;5008792;28;20042;-77
2024/02/06 08:22:35;;;;;;;23.88;6.07;;;;;;;9.05;100.00;100951.41;5024101;28;20385;-77
2024/02/06 08:25:00;;;;;;;18.02;5.95;;;;;;;9.13;100.00;100930.81;5006317;28;20473;-77
2024/02/06 08:27:26;;;;;;;24.10;6.78;;;;;;;9.07;100.00;100959.84;5009663;28;20061;-77
2024/02/06 08:29:51;;;;;;;21.98;5.30;;;;;;;9.05;100.00;100943.66;5011205;28;20034;-78
2024/02/06 08:32:17;;;;;;;16.08;5.00;;;;;;;9.04;100.00;100961.88;5024470;28;20042;-77
2024/02/06 08:34:42;;;;;;;17.88;4.78;;;;;;;9.11;100.00;100950.84;5022229;28;20037;-77
2024/02/06 08:37:08;;;;;;;19.90;5.15;;;;;;;9.09;100.00;100941.59;5026392;28;20455;-77
2024/02/06 08:39:33;;;;;;;16.98;5.03;;;;;;;9.04;100.00;100929.09;5023039;28;20577;-77
2024/02/06 08:41:58;;;;;;;18.23;5.00;;;;;;;9.14;100.00;100932.44;5029517;28;20033;-77
2024/02/06 08:44:25;;;;;;;15.35;5.53;;;;;;;9.12;100.00;100934.38;5024164;28;20037;-76
2024/02/06 08:46:51;;;;;;;15.18;4.45;;;;;;;9.11;100.00;100932.72;5024983;28;20396;-77
2024/02/06 08:49:17;;;;;;;15.18;5.32;;;;;;;9.17;100.00;100941.69;5023653;28;20457;-77
2024/02/06 08:51:43;;;;;;;22.33;5.03;;;;;;;9.14;100.00;100924.69;5023529;28;20048;-77
2024/02/06 08:54:08;;;;;;;23.02;5.80;;;;;;;9.24;100.00;100924.63;5026057;28;20041;-77
2024/02/06 08:56:34;;;;;;;17.48;4.90;;;;;;;9.16;100.00;100930.53;5025989;28;20702;-77
2024/02/06 08:59:01;;;;;;;14.80;4.60;;;;;;;9.26;100.00;100924.50;5024854;28;20034;-78
2024/02/06 09:01:27;;;;;;;13.55;4.45;;;;;;;9.23;100.00;100935.13;5025914;28;20160;-76
2024/02/06 09:03:53;;;;;;;24.15;6.60;;;;;;;9.30;100.00;100941.34;5026241;28;20536;-77
2024/02/06 09:06:19;;;;;;;14.00;5.47;;;;;;;9.27;100.00;100937.28;5028660;28;20038;-78
2024/02/06 09:08:45;;;;;;;17.55;5.45;;;;;;;9.21;100.00;100934.44;5024887;28;20034;-77
2024/02/06 09:11:11;;;;;;;23.30;6.22;;;;;;;9.24;100.00;100945.34;5027396;28;20592;-77
2024/02/06 09:13:36;;;;;;;19.20;6.43;;;;;;;9.11;100.00;100937.09;5010484;28;20037;-76
2024/02/06 09:16:01;;;;;;;23.17;5.97;;;;;;;9.04;100.00;100939.44;5024878;28;20042;-77
2024/02/06 09:18:27;;;;;;;20.40;6.45;;;;;;;8.96;100.00;100929.78;5021526;28;20034;-77
2024/02/06 09:20:53;;;;;;;17.98;5.85;;;;;;;8.96;100.00;100934.16;5028788;28;20505;-78
2024/02/06 09:23:18;;;;;;;17.15;5.80;;;;;;;8.91;100.00;100913.91;5021484;28;20037;-78
2024/02/06 09:25:45;;;;;;;18.40;5.38;;;;;;;8.87;100.00;100914.31;5024252;28;20060;-77
2024/02/06 09:28:11;;;;;;;18.48;5.72;;;;;;;8.93;100.00;100924.13;5024960;28;20025;-77
2024/02/06 09:30:39;;;;;;;15.50;5.80;;;;;;;8.94;100.00;100931.69;5019471;28;20044;-77
2024/02/06 09:33:05;;;;;;;23.02;5.63;;;;;;;9.06;100.00;100916.84;5025902;28;20075;-77
2024/02/06 09:35:31;;;;;;;22.17;5.25;;;;;;;9.11;100.00;100922.38;5025109;28;20638;-77
2024/02/06 09:37:57;;;;;;;21.95;5.90;;;;;;;9.14;100.00;100908.34;5024495;28;20030;-77
2024/02/06 09:40:22;;;;;;;15.00;4.97;;;;;;;9.16;100.00;100909.84;5024407;28;20045;-77
2024/02/06 09:42:49;;;;;;;18.02;5.50;;;;;;;9.25;100.00;100909.91;5023787;28;20033;-77
2024/02/06 09:45:15;;;;;;;24.55;6.32;;;;;;;9.25;100.00;100896.97;5024208;28;20068;-77
2024/02/06 09:47:41;;;;;;;17.35;5.57;;;;;;;9.25;100.00;100902.16;5012883;28;20028;-77
2024/02/06 09:50:08;;;;;;;13.57;5.50;;;;;;;9.25;100.00;100905.56;5021433;28;21242;-77
2024/02/06 09:52:35;;;;;;;17.55;5.68;;;;;;;9.25;100.00;100897.81;5009747;28;20464;-77
2024/02/06 09:55:08;;;;;;;17.20;5.28;;;;;;;9.33;100.00;100894.50;5025440;28;20064;-77
2024/02/06 09:57:37;;;;;;;15.38;5.38;;;;;;;9.36;100.00;100901.97;5025689;28;20128;-77
2024/02/06 10:00:03;;;;;;;21.73;5.57;;;;;;;9.44;100.00;100912.41;5025685;28;20052;-77
2024/02/06 10:02:30;;;;;;;16.08;5.30;;;;;;;9.38;100.00;100902.66;5022068;28;20038;-77
2024/02/06 10:04:57;;;;;;;20.25;5.75;;;;;;;9.39;100.00;100919.78;5023363;28;20416;-78
2024/02/06 10:07:23;;;;;;;18.33;5.03;;;;;;;9.39;100.00;100908.63;5027093;28;20025;-77
2024/02/06 10:09:51;;;;;;;23.42;5.38;;;;;;;9.39;100.00;100913.81;5019491;28;20052;-77
2024/02/06 10:12:16;;;;;;;29.20;5.30;;;;;;;9.33;100.00;100907.44;5028494;28;20122;-77
2024/02/06 10:14:42;;;;;;;10.95;4.78;;;;;;;9.42;100.00;100906.56;5026550;28;20484;-77
2024/02/06 10:17:09;;;;;;;15.50;5.57;;;;;;;9.33;100.00;100903.06;5004360;28;20029;-77
2024/02/06 10:19:35;;;;;;;16.67;5.47;;;;;;;9.29;100.00;100906.09;5021436;28;20496;-77
2024/02/06 10:22:01;;;;;;;16.48;5.50;;;;;;;9.32;100.00;100900.63;5010830;28;20033;-77
2024/02/06 10:24:29;;;;;;;16.60;6.05;;;;;;;9.34;100.00;100893.53;5024065;28;20090;-77
2024/02/06 10:27:02;;;;;;;22.15;5.35;;;;;;;9.35;100.00;100895.97;5020076;28;20026;-77
2024/02/06 10:29:28;;;;;;;23.02;6.30;;;;;;;9.37;100.00;100888.06;5005310;28;20045;-77
2024/02/06 10:31:58;;;;;;;20.85;5.75;;;;;;;9.28;100.00;100889.75;5023671;28;20030;-77
2024/02/06 10:34:26;;;;;;;21.55;7.00;;;;;;;9.28;100.00;100888.94;5019940;28;20037;-77
2024/02/06 10:36:58;;;;;;;15.65;5.25;;;;;;;9.39;100.00;100880.16;5009463;28;20511;-77
2024/02/06 10:39:26;;;;;;;13.88;4.95;;;;;;;9.42;100.00;100883.28;5019913;28;20049;-77
2024/02/06 10:42:02;;;;;;;18.25;5.30;;;;;;;9.45;100.00;100887.34;5008452;28;20036;-77
2024/02/06 10:44:28;;;;;;;21.30;6.65;;;;;;;9.53;100.00;100885.66;5021684;28;20046;-77
2024/02/06 10:47:01;;;;;;;27.15;5.43;;;;;;;9.52;100.00;100871.06;5025050;28;20029;-77
2024/02/06 10:49:27;;;;;;;19.27;5.93;;;;;;;9.71;100.00;100835.63;5023008;28;21494;-77
2024/02/06 10:52:06;;;;;;;13.98;5.03;;;;;;;9.80;100.00;100875.38;5008606;28;20033;-77
2024/02/06 10:54:36;;;;;;;27.90;5.25;;;;;;;9.86;100.00;100852.28;5013925;28;20471;-77
2024/02/06 10:57:07;;;;;;;27.13;5.68;;;;;;;10.05;100.00;100850.47;5005427;28;20061;-77
2024/02/06 10:59:40;;;;;;;15.77;6.13;;;;;;;10.15;100.00;100843.41;5021891;28;20052;-77
2024/02/06 11:02:20;;;;;;;21.58;5.55;;;;;;;10.11;100.00;100845.50;5025147;28;20127;-78
2024/02/06 11:04:46;;;;;;;21.42;5.20;;;;;;;10.14;100.00;100834.81;5010702;28;20178;-78
2024/02/06 11:07:15;;;;;;;23.45;5.85;;;;;;;10.11;100.00;100817.00;5024778;28;20544;-77
2024/02/06 11:09:41;;;;;;;26.67;5.63;;;;;;;9.96;100.00;100841.81;5022481;28;20029;-77
2024/02/06 11:12:09;;;;;;;21.35;5.57;;;;;;;9.98;100.00;100845.06;5001655;28;20037;-76
2024/02/06 11:14:39;;;;;;;27.65;5.85;;;;;;;9.89;100.00;100838.22;5011035;28;20675;-77